CheckWX is a tool to help pilots better visualize weather data.  It is not intended as a substitute for an official pre-flight weather briefing.

17:31:44 UTC

WMKK TAF
Kuala Lumpur International Airport
Kuala Lumpur, Malaysia
TAF WMKK 241100Z 2412/2518 VRB03KT 9999 FEW030 BECMG 2420/2421 5000 HZ FEW017CB BECMG 2502/2503 9999 NSW TEMPO 2508/2512 25007KT 4000 TSRA FEW008 FEW017CB BECMG 2513/2514 9000 FEW030

Mar-24@
12:00 UTC

Mar-24 @ 12:00 UTC

Mar-24@
20:00 UTC

Mar-24 @ 20:00 UTC

TAF WMKK 241100Z 2412/2518 VRB03KT 9999 FEW030
Wind
  • Variable at 3 KTS
Cloud Levels
  • Few at 3,000' AGL

Mar-24@
20:00 UTC

Mar-24 @ 20:00 UTC

Mar-25@
02:00 UTC

Mar-25 @ 02:00 UTC

BECMG 2420/2421 5000 HZ FEW017CB

Becoming

Becoming Conditions expected by Sun, Mar 24, 2019 @ 21:00 UTC

Wind
  • Variable at 3 KTS
Conditions
Haze
Cloud Levels
  • Few at 1,700' AGL

Mar-25@
02:00 UTC

Mar-25 @ 02:00 UTC

Mar-25@
13:00 UTC

Mar-25 @ 13:00 UTC

BECMG 2502/2503 9999 NSW

Becoming

Becoming Conditions expected by Mon, Mar 25, 2019 @ 03:00 UTC

Wind
  • Variable at 3 KTS
Conditions
No significant weather
Cloud Levels
  • Few at 1,700' AGL

Mar-25@
08:00 UTC

Mar-25 @ 08:00 UTC

Mar-25@
12:00 UTC

Mar-25 @ 12:00 UTC

TEMPO 2508/2512 25007KT 4000 TSRA FEW008 FEW017CB

Temporary

Temporary Changes expected for less than half the time period

Wind
  • 250° at 7 KTS
Conditions
Thunderstorm, Rain
Cloud Levels
  • Few at 800' AGL
  • Few at 1,700' AGL

Mar-25@
13:00 UTC

Mar-25 @ 13:00 UTC

Mar-25@
18:00 UTC

Mar-25 @ 18:00 UTC

BECMG 2513/2514 9000 FEW030

Becoming

Becoming Conditions expected by Mon, Mar 25, 2019 @ 14:00 UTC

Wind
  • Variable at 3 KTS
Conditions
No significant weather
Cloud Levels
  • Few at 3,000' AGL